CYNL

METAR CYNL 221700Z AUTO 28004KT 9SM CLR M30/M35 A3008 RMK AO1 SLP292
METAR
LOCATION
CYNL
DATE - TIME
221700Z
WIND
280 TRUE @ 4 KNOTS
VISIBILITY
9SM
RUNWAY VISUAL RANGE
NOT REPORTED
WEATHER
CLOUDINESS
CLR
TEMP / DEWPOINT
-30 ºC / -35 ºC
ALTIMETER
30.08 in. Hg
RECENT WEATHER
NOT REPORTED
WIND SHEAR
NOT REPORTED
REMARKS
RMK AO1 SLP292
SEA LEVEL PRESSURE: hPa

CYNL

METAR CYNL 221600Z AUTO 29006KT 9SM CLR M31/M36 A3008 RMK AO1 SLP291
METAR
LOCATION
CYNL
DATE - TIME
221600Z
WIND
290 TRUE @ 6 KNOTS
VISIBILITY
9SM
RUNWAY VISUAL RANGE
NOT REPORTED
WEATHER
CLOUDINESS
CLR
TEMP / DEWPOINT
-31 ºC / -36 ºC
ALTIMETER
30.08 in. Hg
RECENT WEATHER
NOT REPORTED
WIND SHEAR
NOT REPORTED
REMARKS
RMK AO1 SLP291
SEA LEVEL PRESSURE: hPa

CYNL

METAR CYNL 221500Z AUTO ///// 9SM CLR M32/M36 A3006 RMK AO1 SLP286
METAR
LOCATION
CYNL
DATE - TIME
221500Z
WIND
VISIBILITY
9SM
RUNWAY VISUAL RANGE
NOT REPORTED
WEATHER
CLOUDINESS
CLR
TEMP / DEWPOINT
-32 ºC / -36 ºC
ALTIMETER
30.06 in. Hg
RECENT WEATHER
NOT REPORTED
WIND SHEAR
NOT REPORTED
REMARKS
RMK AO1 SLP286
SEA LEVEL PRESSURE: hPa

Your time UTC time
 
 
Weather data provided by AXYS Technologies Inc., www.axystechnologies.com
 
Station History